createdAt,value
2023-02-21T00:00:08.422Z,28.73
2023-02-21T00:03:00.576Z,28.49
2023-02-21T00:05:46.458Z,28.50
2023-02-21T00:08:32.130Z,28.50
2023-02-21T00:11:18.618Z,28.37
2023-02-21T00:14:03.984Z,28.45
2023-02-21T00:16:49.156Z,28.60
2023-02-21T00:19:34.506Z,28.25
2023-02-21T00:22:19.892Z,28.16
2023-02-21T00:25:05.162Z,28.56
2023-02-21T00:27:52.869Z,28.28
2023-02-21T00:30:38.375Z,28.17
2023-02-21T00:33:23.815Z,28.57
2023-02-21T00:36:09.032Z,28.39
2023-02-21T00:38:55.930Z,28.49
2023-02-21T00:41:41.560Z,28.37
2023-02-21T00:44:28.758Z,28.40
2023-02-21T00:47:14.081Z,28.26
2023-02-21T00:49:59.357Z,28.38
2023-02-21T00:52:44.490Z,28.74
2023-02-21T00:55:29.890Z,28.27
2023-02-21T00:58:15.349Z,28.26
2023-02-21T01:01:02.314Z,28.42
2023-02-21T01:03:47.705Z,28.11
2023-02-21T01:06:32.866Z,28.37
2023-02-21T01:09:18.076Z,28.25
2023-02-21T01:12:03.493Z,28.26
2023-02-21T01:14:49.208Z,28.37
2023-02-21T01:17:36.013Z,28.39
2023-02-21T01:20:22.506Z,28.20
2023-02-21T01:23:07.833Z,28.19
2023-02-21T01:25:53.644Z,28.47
2023-02-21T01:28:39.377Z,28.16
2023-02-21T01:31:24.701Z,28.21
2023-02-21T01:34:11.807Z,28.22
2023-02-21T01:36:59.776Z,28.17
2023-02-21T01:39:45.033Z,28.10
2023-02-21T01:42:30.237Z,28.13
2023-02-21T01:46:05.027Z,28.21
2023-02-21T01:48:53.788Z,28.24
2023-02-21T01:51:44.586Z,28.32
2023-02-21T01:54:30.710Z,28.17
2023-02-21T01:57:19.346Z,28.23
2023-02-21T02:00:06.639Z,28.10
2023-02-21T02:03:07.483Z,28.14
2023-02-21T02:05:55.226Z,28.26
2023-02-21T02:08:46.219Z,27.99
2023-02-21T02:11:43.888Z,28.09
2023-02-21T02:14:27.300Z,27.94
2023-02-21T02:17:03.866Z,27.94
2023-02-21T02:20:08.170Z,28.00
2023-02-21T02:23:12.495Z,27.94
2023-02-21T02:26:06.735Z,27.95
2023-02-21T02:28:50.501Z,27.95
2023-02-21T02:31:42.573Z,27.87
2023-02-21T02:34:36.810Z,27.88
2023-02-21T02:37:13.303Z,27.91
2023-02-21T02:39:47.906Z,27.82
2023-02-21T02:42:26.167Z,27.69
2023-02-21T02:44:59.087Z,27.74
2023-02-21T02:47:31.536Z,27.61
2023-02-21T02:50:01.428Z,27.74
2023-02-21T02:52:28.853Z,27.66
2023-02-21T02:55:00.175Z,27.49
2023-02-21T02:57:29.956Z,27.62
2023-02-21T02:59:57.025Z,27.60
2023-02-21T03:02:39.642Z,27.63
2023-02-21T03:05:22.844Z,27.63
2023-02-21T03:07:58.753Z,27.23
2023-02-21T03:10:37.158Z,27.45
2023-02-21T03:13:13.126Z,27.61
2023-02-21T03:15:47.858Z,27.64
2023-02-21T03:18:21.125Z,27.32
2023-02-21T03:20:54.378Z,27.53
2023-02-21T03:23:23.203Z,27.56
2023-02-21T03:25:52.593Z,27.44
2023-02-21T03:28:20.766Z,27.53
2023-02-21T03:30:52.831Z,27.54
2023-02-21T03:33:20.190Z,27.42
2023-02-21T03:35:47.274Z,27.56
2023-02-21T03:38:15.885Z,27.47
2023-02-21T03:40:42.838Z,27.48
2023-02-21T03:43:10.901Z,27.41
2023-02-21T03:45:47.984Z,27.53
2023-02-21T03:48:31.076Z,27.33
2023-02-21T03:51:02.880Z,27.35
2023-02-21T03:53:36.945Z,27.35
2023-02-21T03:56:05.893Z,27.45
2023-02-21T03:58:49.489Z,27.39
2023-02-21T04:01:16.993Z,27.41
2023-02-21T04:03:44.116Z,27.30
2023-02-21T04:06:11.132Z,27.46
2023-02-21T04:08:39.478Z,27.32
2023-02-21T04:11:06.680Z,27.13
2023-02-21T04:13:35.161Z,27.43
2023-02-21T04:16:03.036Z,27.21
2023-02-21T04:18:30.767Z,27.13
2023-02-21T04:21:00.635Z,27.25
2023-02-21T04:23:27.689Z,27.25
2023-02-21T04:25:56.443Z,27.23
2023-02-21T04:28:32.879Z,27.12
2023-02-21T04:31:00.126Z,27.24
2023-02-21T04:33:27.049Z,27.21
2023-02-21T04:35:54.004Z,27.18
2023-02-21T04:38:31.905Z,27.04
2023-02-21T04:41:00.189Z,27.28
2023-02-21T04:43:27.116Z,27.03
2023-02-21T04:45:54.098Z,26.92
2023-02-21T04:48:21.059Z,27.03
2023-02-21T04:50:47.967Z,27.00
2023-02-21T04:53:14.886Z,27.02
2023-02-21T04:55:41.829Z,27.05
2023-02-21T04:58:10.205Z,26.97
2023-02-21T05:00:37.041Z,27.04
2023-02-21T05:03:03.942Z,26.96
2023-02-21T05:05:30.907Z,26.89
2023-02-21T05:07:57.749Z,26.92
2023-02-21T05:10:31.049Z,26.91
2023-02-21T05:13:03.644Z,26.98
2023-02-21T05:15:31.924Z,26.87
2023-02-21T05:17:58.863Z,26.82
2023-02-21T05:20:25.716Z,26.90
2023-02-21T05:22:54.521Z,27.01
2023-02-21T05:25:23.512Z,26.39
2023-02-21T05:27:51.845Z,26.71
2023-02-21T05:30:20.685Z,26.81
2023-02-21T05:32:49.001Z,26.70
2023-02-21T05:35:16.934Z,26.82
2023-02-21T05:37:44.034Z,26.66
2023-02-21T05:40:12.717Z,26.76
2023-02-21T05:42:39.588Z,26.68
2023-02-21T05:45:06.990Z,26.69
2023-02-21T05:47:34.936Z,26.66
2023-02-21T05:50:03.872Z,26.84
2023-02-21T05:52:30.782Z,26.91
2023-02-21T05:54:57.642Z,26.87
2023-02-21T05:57:24.644Z,26.94
2023-02-21T05:59:51.559Z,27.17
2023-02-21T06:02:18.830Z,27.05
2023-02-21T06:04:45.857Z,26.95
2023-02-21T06:07:14.323Z,27.00
2023-02-21T06:09:41.495Z,26.88
2023-02-21T06:12:08.448Z,26.88
2023-02-21T06:14:35.395Z,26.93
2023-02-21T06:17:02.823Z,27.06
2023-02-21T06:19:31.074Z,26.88
2023-02-21T06:21:58.825Z,26.75
2023-02-21T06:24:27.042Z,26.67
2023-02-21T06:26:53.920Z,26.49
2023-02-21T06:29:20.937Z,26.43
2023-02-21T06:31:47.875Z,26.38
2023-02-21T06:34:14.892Z,26.31
2023-02-21T06:36:41.802Z,26.52
2023-02-21T06:39:10.892Z,26.51
2023-02-21T06:41:39.204Z,26.00
2023-02-21T06:44:06.139Z,26.50
2023-02-21T06:46:33.055Z,26.43
2023-02-21T06:48:59.984Z,26.28
2023-02-21T06:51:29.854Z,26.02
2023-02-21T06:53:58.442Z,26.43
2023-02-21T06:56:25.417Z,26.39
2023-02-21T06:58:54.168Z,26.33
2023-02-21T07:01:21.211Z,26.12
2023-02-21T07:03:48.188Z,26.24
2023-02-21T07:06:15.442Z,26.05
2023-02-21T07:08:42.359Z,26.20
2023-02-21T07:11:09.701Z,26.00
2023-02-21T07:13:36.860Z,26.26
2023-02-21T07:16:06.181Z,26.10
2023-02-21T07:18:33.576Z,25.93
2023-02-21T07:21:00.555Z,25.87
2023-02-21T07:23:27.498Z,25.65
2023-02-21T07:25:54.368Z,26.04
2023-02-21T07:28:21.285Z,26.27
2023-02-21T07:30:48.454Z,26.17
2023-02-21T07:33:16.780Z,26.22
2023-02-21T07:35:43.818Z,26.21
2023-02-21T07:38:10.715Z,25.92
2023-02-21T07:40:37.573Z,25.87
2023-02-21T07:43:04.551Z,25.54
2023-02-21T07:45:31.700Z,25.44
2023-02-21T07:47:58.574Z,25.78
2023-02-21T07:50:26.906Z,25.77
2023-02-21T07:52:53.866Z,25.88
2023-02-21T07:55:21.782Z,26.08
2023-02-21T07:57:48.826Z,26.01
2023-02-21T08:00:16.290Z,25.75
2023-02-21T08:02:48.811Z,25.96
2023-02-21T08:05:16.753Z,25.62
2023-02-21T08:07:45.079Z,25.71
2023-02-21T08:10:12.382Z,25.71
2023-02-21T08:12:39.223Z,25.95
2023-02-21T08:15:06.885Z,26.18
2023-02-21T08:17:33.795Z,25.90
2023-02-21T08:20:00.842Z,26.17
2023-02-21T08:22:27.706Z,26.30
2023-02-21T08:24:55.915Z,26.12
2023-02-21T08:27:22.830Z,26.43
2023-02-21T08:29:50.716Z,26.36
2023-02-21T08:32:18.041Z,26.27
2023-02-21T08:34:45.191Z,26.59
2023-02-21T08:37:17.449Z,26.35
2023-02-21T08:39:46.213Z,26.47
2023-02-21T08:42:14.512Z,26.45
2023-02-21T08:44:43.870Z,26.61
2023-02-21T08:47:10.998Z,26.60
2023-02-21T08:49:42.533Z,26.63
2023-02-21T08:52:09.699Z,26.78
2023-02-21T08:54:37.096Z,26.65
2023-02-21T08:57:04.038Z,26.74
2023-02-21T08:59:33.759Z,26.44
2023-02-21T09:02:01.499Z,26.63
2023-02-21T09:04:28.413Z,26.75
2023-02-21T09:06:55.581Z,26.75
2023-02-21T09:09:22.857Z,26.77
2023-02-21T09:11:49.800Z,26.86
2023-02-21T09:14:17.062Z,26.92
2023-02-21T09:16:47.638Z,26.82
2023-02-21T09:19:14.943Z,27.08
2023-02-21T09:21:47.114Z,26.86
2023-02-21T09:24:14.347Z,26.94
2023-02-21T09:26:42.405Z,26.93
2023-02-21T09:29:09.482Z,27.08
2023-02-21T09:31:36.424Z,27.94
2023-02-21T09:34:04.755Z,28.00
2023-02-21T09:36:31.739Z,28.32
2023-02-21T09:38:59.760Z,28.03
2023-02-21T09:41:27.599Z,28.60
2023-02-21T09:43:55.056Z,28.61
2023-02-21T09:46:30.019Z,28.63
2023-02-21T09:48:57.088Z,28.56
2023-02-21T09:51:26.306Z,28.80
2023-02-21T09:53:56.095Z,28.76
2023-02-21T09:56:31.017Z,28.52
2023-02-21T09:58:59.096Z,28.72
2023-02-21T10:01:38.366Z,28.85
2023-02-21T10:04:19.259Z,28.47
2023-02-21T10:06:52.597Z,28.41
2023-02-21T10:09:27.458Z,28.24
2023-02-21T10:12:08.764Z,28.53
2023-02-21T10:14:54.034Z,28.49
2023-02-21T10:17:27.969Z,28.37
2023-02-21T10:20:00.557Z,28.42
2023-02-21T10:22:33.616Z,27.92
2023-02-21T10:25:09.099Z,28.29
2023-02-21T10:27:36.283Z,28.36
2023-02-21T10:30:07.243Z,28.14
2023-02-21T10:32:34.218Z,28.02
2023-02-21T10:35:01.165Z,27.99
2023-02-21T10:37:40.684Z,27.70
2023-02-21T10:40:24.894Z,27.46
2023-02-21T10:42:56.624Z,28.11
2023-02-21T10:45:32.934Z,28.12
2023-02-21T10:48:03.782Z,27.85
2023-02-21T10:50:40.747Z,28.01
2023-02-21T10:53:10.072Z,27.74
2023-02-21T10:55:37.072Z,27.13
2023-02-21T10:58:09.866Z,27.11
2023-02-21T11:00:38.841Z,27.20
2023-02-21T11:03:13.097Z,27.36
2023-02-21T11:05:40.347Z,26.98
2023-02-21T11:08:10.699Z,27.35
2023-02-21T11:10:42.347Z,27.09
2023-02-21T11:13:16.042Z,27.09
2023-02-21T11:15:43.841Z,26.75
2023-02-21T11:18:17.989Z,26.87
2023-02-21T11:20:46.318Z,26.94
2023-02-21T11:23:27.449Z,27.34
2023-02-21T11:26:00.013Z,27.43
2023-02-21T11:28:27.380Z,27.24
2023-02-21T11:31:09.162Z,27.34
2023-02-21T11:33:41.451Z,27.75
2023-02-21T11:36:12.151Z,27.15
2023-02-21T11:38:43.486Z,27.55
2023-02-21T11:41:17.603Z,27.63
2023-02-21T11:43:48.640Z,28.19
2023-02-21T11:46:29.779Z,27.46
2023-02-21T11:49:02.642Z,27.76
2023-02-21T11:51:36.816Z,27.69
2023-02-21T11:54:06.542Z,27.88
2023-02-21T11:56:42.762Z,27.65
2023-02-21T11:59:21.361Z,27.77
2023-02-21T12:01:59.487Z,27.53
2023-02-21T12:04:48.025Z,27.48
2023-02-21T12:07:21.569Z,27.49
2023-02-21T12:09:56.183Z,27.53
2023-02-21T12:12:40.179Z,27.52
2023-02-21T12:15:18.442Z,27.78
2023-02-21T12:18:10.220Z,27.77
2023-02-21T12:21:13.421Z,27.80
2023-02-21T12:23:53.123Z,28.17
2023-02-21T12:26:34.640Z,28.00
2023-02-21T12:29:16.838Z,28.15
2023-02-21T12:32:06.091Z,28.44
2023-02-21T12:34:47.564Z,29.31
2023-02-21T12:37:26.379Z,29.59
2023-02-21T12:40:10.651Z,29.49
2023-02-21T12:42:53.258Z,29.88
2023-02-21T12:45:44.053Z,30.13
2023-02-21T12:48:18.682Z,30.25
2023-02-21T12:50:52.938Z,30.15
2023-02-21T12:53:26.413Z,29.95
2023-02-21T12:55:59.664Z,29.89
2023-02-21T12:58:33.360Z,29.62
2023-02-21T13:01:10.702Z,29.70
2023-02-21T13:03:50.021Z,29.60
2023-02-21T13:06:21.173Z,29.25
2023-02-21T13:08:59.639Z,29.63
2023-02-21T13:11:32.874Z,29.22
2023-02-21T13:14:02.961Z,29.19
2023-02-21T13:16:31.731Z,29.59
2023-02-21T13:19:02.205Z,29.49
2023-02-21T13:21:42.990Z,29.19
2023-02-21T13:24:40.399Z,29.04
2023-02-21T13:27:45.426Z,29.18
2023-02-21T13:30:17.893Z,29.33
2023-02-21T13:32:52.672Z,28.68
2023-02-21T13:35:24.727Z,28.67
2023-02-21T13:37:52.689Z,28.69
2023-02-21T13:40:24.311Z,28.95
2023-02-21T13:43:02.149Z,28.54
2023-02-21T13:45:30.983Z,28.96
2023-02-21T13:48:23.584Z,28.77
2023-02-21T13:50:51.763Z,28.88
2023-02-21T13:53:20.177Z,28.35
2023-02-21T13:56:23.770Z,28.59
2023-02-21T13:58:50.643Z,28.48
2023-02-21T14:01:23.541Z,28.42
2023-02-21T14:03:53.654Z,28.10
2023-02-21T14:06:34.214Z,28.39
2023-02-21T14:09:07.235Z,28.34
2023-02-21T14:11:39.576Z,27.87
2023-02-21T14:14:21.560Z,27.91
2023-02-21T14:16:53.396Z,28.09
2023-02-21T14:19:25.407Z,28.41
2023-02-21T14:21:59.948Z,28.01
2023-02-21T14:24:28.848Z,27.94
2023-02-21T14:27:01.096Z,27.94
2023-02-21T14:29:31.548Z,28.50
2023-02-21T14:32:31.329Z,27.92
2023-02-21T14:34:59.399Z,28.47
2023-02-21T14:37:33.042Z,27.90
2023-02-21T14:40:07.019Z,28.34
2023-02-21T14:42:44.329Z,27.82
2023-02-21T14:45:41.486Z,27.84
2023-02-21T14:48:41.774Z,28.35
2023-02-21T14:51:44.698Z,28.09
2023-02-21T14:54:41.788Z,28.47
2023-02-21T14:57:35.133Z,28.26
2023-02-21T15:00:19.006Z,28.07
2023-02-21T15:02:53.902Z,28.03
2023-02-21T15:05:27.623Z,28.00
2023-02-21T15:08:05.087Z,28.28
2023-02-21T15:10:39.413Z,28.07
2023-02-21T15:13:06.588Z,27.75
2023-02-21T15:15:36.652Z,27.78
2023-02-21T15:18:06.406Z,28.08
2023-02-21T15:20:37.281Z,28.32
2023-02-21T15:23:13.721Z,28.06
2023-02-21T15:25:41.366Z,28.20
2023-02-21T15:28:22.466Z,28.25
2023-02-21T15:31:04.263Z,28.15
2023-02-21T15:33:34.163Z,27.71
2023-02-21T15:36:05.882Z,28.11
2023-02-21T15:38:35.397Z,27.56
2023-02-21T15:41:08.100Z,27.73
2023-02-21T15:43:45.346Z,27.91
2023-02-21T15:46:16.777Z,27.74
2023-02-21T15:48:44.125Z,27.59
2023-02-21T15:51:13.402Z,28.03
2023-02-21T15:53:40.562Z,27.95
2023-02-21T15:56:22.906Z,28.08
2023-02-21T15:59:18.851Z,27.66
2023-02-21T16:01:46.202Z,27.71
2023-02-21T16:04:19.952Z,27.53
2023-02-21T16:06:52.287Z,27.31
2023-02-21T16:09:26.643Z,27.19
2023-02-21T16:11:56.980Z,27.66
2023-02-21T16:14:29.967Z,27.38
2023-02-21T16:17:08.167Z,27.59
2023-02-21T16:19:36.302Z,27.64
2023-02-21T16:22:24.977Z,27.64
2023-02-21T16:25:12.953Z,26.95
2023-02-21T16:27:41.482Z,27.63
2023-02-21T16:30:13.422Z,27.19
2023-02-21T16:32:43.475Z,27.82
2023-02-21T16:35:14.566Z,27.64
2023-02-21T16:37:42.919Z,27.25
2023-02-21T16:40:15.306Z,27.74
2023-02-21T16:42:42.253Z,27.33
2023-02-21T16:45:09.512Z,27.53
2023-02-21T16:47:36.404Z,27.93
2023-02-21T16:50:04.649Z,27.89
2023-02-21T16:52:31.579Z,27.85
2023-02-21T16:55:00.153Z,28.06
2023-02-21T16:57:27.224Z,27.87
2023-02-21T16:59:54.508Z,27.62
2023-02-21T17:02:24.755Z,27.80
2023-02-21T17:04:51.720Z,28.12
2023-02-21T17:07:20.640Z,27.77
2023-02-21T17:09:47.562Z,27.81
2023-02-21T17:12:15.938Z,28.08
2023-02-21T17:14:42.832Z,28.22
2023-02-21T17:17:09.933Z,27.65
2023-02-21T17:19:36.899Z,27.89
2023-02-21T17:22:03.944Z,28.19
2023-02-21T17:24:31.589Z,27.67
2023-02-21T17:27:00.488Z,27.88
2023-02-21T17:29:29.696Z,28.10
2023-02-21T17:31:58.742Z,27.43
2023-02-21T17:34:25.727Z,27.44
2023-02-21T17:36:53.428Z,27.88
2023-02-21T17:39:21.219Z,27.74
2023-02-21T17:41:48.942Z,27.27
2023-02-21T17:44:18.112Z,27.39
2023-02-21T17:46:50.829Z,27.42
2023-02-21T17:49:18.869Z,27.38
2023-02-21T17:51:47.161Z,27.84
2023-02-21T17:54:14.210Z,27.79
2023-02-21T17:56:41.345Z,27.43
2023-02-21T17:59:08.302Z,27.10
2023-02-21T18:01:35.420Z,27.65
2023-02-21T18:04:03.994Z,27.08
2023-02-21T18:06:30.902Z,27.57
2023-02-21T18:08:58.093Z,27.11
2023-02-21T18:11:25.626Z,26.89
2023-02-21T18:13:53.049Z,27.28
2023-02-21T18:16:19.989Z,27.20
2023-02-21T18:18:47.366Z,27.38
2023-02-21T18:21:16.649Z,26.84
2023-02-21T18:23:44.750Z,26.88
2023-02-21T18:26:12.175Z,27.32
2023-02-21T18:28:39.742Z,27.10
2023-02-21T18:31:07.567Z,27.09
2023-02-21T18:33:35.240Z,26.99
2023-02-21T18:36:02.195Z,27.08
2023-02-21T18:38:30.444Z,27.14
2023-02-21T18:41:01.760Z,26.61
2023-02-21T18:43:30.017Z,27.04
2023-02-21T18:45:58.176Z,27.02
2023-02-21T18:48:26.464Z,27.09
2023-02-21T18:50:54.033Z,26.89
2023-02-21T18:53:21.455Z,26.63
2023-02-21T18:55:49.773Z,26.43
2023-02-21T18:58:16.666Z,26.38
2023-02-21T19:00:43.920Z,26.97
2023-02-21T19:03:11.641Z,26.96
2023-02-21T19:05:38.957Z,26.29
2023-02-21T19:08:06.039Z,26.37
2023-02-21T19:10:33.073Z,26.42
2023-02-21T19:13:02.131Z,26.69
2023-02-21T19:15:33.087Z,26.40
2023-02-21T19:18:00.419Z,26.27
2023-02-21T19:20:27.478Z,26.60
2023-02-21T19:22:56.026Z,26.38
2023-02-21T19:25:27.917Z,26.30
2023-02-21T19:28:06.852Z,26.59
2023-02-21T19:30:37.131Z,26.35
2023-02-21T19:33:06.187Z,26.71
2023-02-21T19:35:34.803Z,26.75
2023-02-21T19:38:03.554Z,26.20
2023-02-21T19:40:30.813Z,26.71
2023-02-21T19:42:57.845Z,26.12
2023-02-21T19:45:24.912Z,26.01
2023-02-21T19:47:53.161Z,26.26
2023-02-21T19:50:20.455Z,26.19
2023-02-21T19:52:52.088Z,26.33
2023-02-21T19:55:18.928Z,26.03
2023-02-21T19:57:45.810Z,26.00
2023-02-21T20:00:13.543Z,25.92
2023-02-21T20:02:40.427Z,26.32
2023-02-21T20:05:09.562Z,25.97
2023-02-21T20:07:36.471Z,26.40
2023-02-21T20:10:03.490Z,26.53
2023-02-21T20:12:30.394Z,26.37
2023-02-21T20:14:57.461Z,26.02
2023-02-21T20:17:25.172Z,26.00
2023-02-21T20:19:52.171Z,25.90
2023-02-21T20:22:20.508Z,26.29
2023-02-21T20:24:47.545Z,26.13
2023-02-21T20:27:15.218Z,26.41
2023-02-21T20:29:42.147Z,26.36
2023-02-21T20:32:09.127Z,25.90
2023-02-21T20:34:39.593Z,25.95
2023-02-21T20:37:06.682Z,26.06
2023-02-21T20:39:35.078Z,26.35
2023-02-21T20:42:02.766Z,26.12
2023-02-21T20:44:34.203Z,26.16
2023-02-21T20:47:01.506Z,26.00
2023-02-21T20:49:28.360Z,25.57
2023-02-21T20:51:55.570Z,25.67
2023-02-21T20:54:23.195Z,25.39
2023-02-21T20:56:53.847Z,25.65
2023-02-21T20:59:22.619Z,25.64
2023-02-21T21:01:49.766Z,25.40
2023-02-21T21:04:18.701Z,25.80
2023-02-21T21:06:46.738Z,25.75
2023-02-21T21:09:17.864Z,25.64
2023-02-21T21:11:45.664Z,25.60
2023-02-21T21:14:17.331Z,25.50
2023-02-21T21:16:44.309Z,25.99
2023-02-21T21:19:11.567Z,25.63
2023-02-21T21:21:38.579Z,26.01
2023-02-21T21:24:07.175Z,25.81
2023-02-21T21:26:34.211Z,26.14
2023-02-21T21:29:02.031Z,25.71
2023-02-21T21:31:30.868Z,25.76
2023-02-21T21:33:58.406Z,25.98
2023-02-21T21:36:26.642Z,25.46
2023-02-21T21:38:53.550Z,25.79
2023-02-21T21:41:20.433Z,26.09
2023-02-21T21:43:48.411Z,25.97
2023-02-21T21:46:16.189Z,25.47
2023-02-21T21:48:44.856Z,25.50
2023-02-21T21:51:14.077Z,25.71
2023-02-21T21:53:41.586Z,25.65
2023-02-21T21:56:08.514Z,26.02
2023-02-21T21:58:35.411Z,25.47
2023-02-21T22:01:05.523Z,25.78
2023-02-21T22:03:32.761Z,25.79
2023-02-21T22:06:00.987Z,25.55
2023-02-21T22:08:28.751Z,25.96
2023-02-21T22:10:55.612Z,25.61
2023-02-21T22:13:22.498Z,26.14
2023-02-21T22:15:50.062Z,25.76
2023-02-21T22:18:18.654Z,25.65
2023-02-21T22:20:49.696Z,25.95
2023-02-21T22:23:21.251Z,25.90
2023-02-21T22:25:48.423Z,26.10
2023-02-21T22:28:15.313Z,25.79
2023-02-21T22:30:42.530Z,25.79
2023-02-21T22:33:13.562Z,26.06
2023-02-21T22:35:40.834Z,25.88
2023-02-21T22:38:14.096Z,26.00
2023-02-21T22:40:43.328Z,25.95
2023-02-21T22:43:10.685Z,25.85
2023-02-21T22:45:38.265Z,25.92
2023-02-21T22:48:07.538Z,26.10
2023-02-21T22:50:37.175Z,25.84
2023-02-21T22:53:09.118Z,25.76
2023-02-21T22:55:37.211Z,26.04
2023-02-21T22:58:07.606Z,25.82
2023-02-21T23:00:35.930Z,26.03
2023-02-21T23:03:14.508Z,25.94
2023-02-21T23:05:43.817Z,25.89
2023-02-21T23:08:12.933Z,25.80
2023-02-21T23:10:40.338Z,25.85
2023-02-21T23:13:11.023Z,25.70
2023-02-21T23:15:38.129Z,26.09
2023-02-21T23:18:05.071Z,25.97
2023-02-21T23:20:32.706Z,25.79
2023-02-21T23:23:01.079Z,25.66
2023-02-21T23:25:35.229Z,25.77
2023-02-21T23:28:05.017Z,25.59
2023-02-21T23:30:40.317Z,25.63
2023-02-21T23:33:08.825Z,25.68
2023-02-21T23:35:36.350Z,25.65
2023-02-21T23:38:03.850Z,25.77
2023-02-21T23:40:30.715Z,25.42
2023-02-21T23:42:57.881Z,25.73
2023-02-21T23:45:26.413Z,25.65
2023-02-21T23:47:55.622Z,25.79
2023-02-21T23:50:31.291Z,25.86
2023-02-21T23:53:02.591Z,25.91
2023-02-21T23:55:30.008Z,25.72
2023-02-21T23:57:59.869Z,25.76
